createdAt,value
2023-05-11T00:00:17.426Z,14.64
2023-05-11T00:02:51.634Z,14.68
2023-05-11T00:05:21.843Z,14.60
2023-05-11T00:07:52.208Z,14.53
2023-05-11T00:10:27.161Z,14.56
2023-05-11T00:12:58.221Z,14.61
2023-05-11T00:15:28.366Z,14.39
2023-05-11T00:18:02.263Z,14.42
2023-05-11T00:20:32.437Z,14.51
2023-05-11T00:23:02.734Z,14.55
2023-05-11T00:25:35.364Z,14.59
2023-05-11T00:28:05.679Z,14.62
2023-05-11T00:30:35.677Z,14.59
2023-05-11T00:33:08.626Z,14.55
2023-05-11T00:35:38.939Z,14.48
2023-05-11T00:38:10.007Z,14.52
2023-05-11T00:40:42.785Z,14.60
2023-05-11T00:43:12.889Z,14.54
2023-05-11T00:45:48.301Z,14.44
2023-05-11T00:48:21.109Z,14.51
2023-05-11T00:50:51.652Z,14.55
2023-05-11T00:53:23.118Z,14.57
2023-05-11T00:55:53.166Z,14.61
2023-05-11T00:58:25.187Z,14.63
2023-05-11T01:00:55.454Z,14.61
2023-05-11T01:03:30.515Z,14.67
2023-05-11T01:06:08.318Z,14.71
2023-05-11T01:08:46.015Z,14.63
2023-05-11T01:11:23.108Z,14.54
2023-05-11T01:13:58.724Z,14.52
2023-05-11T01:16:29.825Z,14.58
2023-05-11T01:19:13.710Z,14.61
2023-05-11T01:21:44.374Z,14.56
2023-05-11T01:24:40.597Z,14.57
2023-05-11T01:27:43.159Z,14.53
2023-05-11T01:30:32.676Z,14.62
2023-05-11T01:33:07.242Z,14.60
2023-05-11T01:35:40.856Z,14.56
2023-05-11T01:38:16.109Z,14.32
2023-05-11T01:40:51.840Z,14.38
2023-05-11T01:43:26.793Z,14.33
2023-05-11T01:46:04.157Z,14.36
2023-05-11T01:48:40.505Z,14.42
2023-05-11T01:51:12.290Z,14.44
2023-05-11T01:53:45.727Z,14.37
2023-05-11T01:56:19.017Z,14.32
2023-05-11T01:58:52.714Z,14.25
2023-05-11T02:01:26.693Z,14.41
2023-05-11T02:03:58.074Z,14.37
2023-05-11T02:06:32.845Z,14.37
2023-05-11T02:09:03.836Z,14.32
2023-05-11T02:11:36.249Z,14.36
2023-05-11T02:14:08.320Z,14.39
2023-05-11T02:16:42.162Z,14.31
2023-05-11T02:19:12.962Z,14.34
2023-05-11T02:21:46.366Z,14.33
2023-05-11T02:24:17.685Z,14.25
2023-05-11T02:26:47.913Z,14.35
2023-05-11T02:29:19.952Z,14.42
2023-05-11T02:31:56.022Z,14.39
2023-05-11T02:34:31.205Z,14.24
2023-05-11T02:37:04.429Z,14.44
2023-05-11T02:39:39.800Z,14.42
2023-05-11T02:42:15.697Z,14.47
2023-05-11T02:44:54.369Z,14.31
2023-05-11T02:47:31.985Z,14.31
2023-05-11T02:50:05.984Z,14.32
2023-05-11T02:52:43.377Z,14.29
2023-05-11T02:55:14.782Z,14.36
2023-05-11T02:57:46.041Z,14.37
2023-05-11T03:00:18.603Z,14.41
2023-05-11T03:02:52.981Z,14.40
2023-05-11T03:05:24.827Z,14.34
2023-05-11T03:07:56.594Z,14.46
2023-05-11T03:10:27.643Z,14.45
2023-05-11T03:12:58.735Z,14.49
2023-05-11T03:15:29.986Z,14.36
2023-05-11T03:18:03.836Z,14.38
2023-05-11T03:20:36.494Z,14.45
2023-05-11T03:23:10.295Z,14.42
2023-05-11T03:25:41.442Z,14.34
2023-05-11T03:28:12.530Z,14.31
2023-05-11T03:30:46.275Z,14.39
2023-05-11T03:33:23.850Z,14.29
2023-05-11T03:35:56.978Z,14.26
2023-05-11T03:38:31.230Z,14.36
2023-05-11T03:41:03.580Z,14.44
2023-05-11T03:43:40.452Z,14.49
2023-05-11T03:46:11.908Z,14.54
2023-05-11T03:48:45.653Z,14.61
2023-05-11T03:51:21.370Z,14.48
2023-05-11T03:53:51.681Z,14.45
2023-05-11T03:56:23.805Z,14.58
2023-05-11T03:58:56.146Z,14.63
2023-05-11T04:01:26.522Z,14.70
2023-05-11T04:03:59.678Z,14.68
2023-05-11T04:06:30.308Z,14.72
2023-05-11T04:09:14.543Z,14.76
2023-05-11T04:11:45.060Z,14.81
2023-05-11T04:14:15.137Z,14.72
2023-05-11T04:16:45.460Z,14.74
2023-05-11T04:19:19.019Z,14.70
2023-05-11T04:21:50.930Z,14.57
2023-05-11T04:24:23.360Z,14.58
2023-05-11T04:26:58.950Z,14.58
2023-05-11T04:29:31.155Z,14.72
2023-05-11T04:32:01.490Z,14.66
2023-05-11T04:34:35.291Z,14.80
2023-05-11T04:37:07.688Z,14.80
2023-05-11T04:39:39.336Z,14.90
2023-05-11T04:42:09.758Z,15.01
2023-05-11T04:44:40.963Z,14.77
2023-05-11T04:47:11.142Z,14.76
2023-05-11T04:49:44.642Z,14.70
2023-05-11T04:52:14.874Z,14.79
2023-05-11T04:54:48.060Z,14.82
2023-05-11T04:57:19.263Z,14.92
2023-05-11T04:59:50.611Z,14.87
2023-05-11T05:02:20.921Z,14.91
2023-05-11T05:04:55.193Z,14.82
2023-05-11T05:07:29.213Z,14.78
2023-05-11T05:09:59.421Z,14.60
2023-05-11T05:12:30.955Z,14.77
2023-05-11T05:15:02.115Z,14.80
2023-05-11T05:17:32.361Z,14.65
2023-05-11T05:20:07.887Z,14.50
2023-05-11T05:22:38.213Z,14.54
2023-05-11T05:25:09.445Z,14.60
2023-05-11T05:27:39.650Z,14.57
2023-05-11T05:30:13.995Z,14.63
2023-05-11T05:32:45.000Z,14.51
2023-05-11T05:35:18.804Z,14.59
2023-05-11T05:37:50.329Z,14.48
2023-05-11T05:40:22.768Z,14.42
2023-05-11T05:42:56.871Z,14.37
2023-05-11T05:45:27.636Z,14.40
2023-05-11T05:48:00.685Z,14.36
2023-05-11T05:50:34.142Z,14.30
2023-05-11T05:53:07.805Z,14.35
2023-05-11T05:55:40.410Z,14.31
2023-05-11T05:58:11.235Z,14.13
2023-05-11T06:00:41.541Z,14.13
2023-05-11T06:03:13.691Z,14.47
2023-05-11T06:05:49.669Z,14.31
2023-05-11T06:08:20.353Z,14.29
2023-05-11T06:10:50.365Z,14.29
2023-05-11T06:13:20.758Z,14.26
2023-05-11T06:15:50.634Z,14.21
2023-05-11T06:18:29.020Z,14.30
2023-05-11T06:21:02.492Z,14.30
2023-05-11T06:23:36.064Z,14.37
2023-05-11T06:26:06.187Z,14.34
2023-05-11T06:28:37.177Z,14.33
2023-05-11T06:31:10.960Z,14.47
2023-05-11T06:33:44.681Z,14.54
2023-05-11T06:36:25.850Z,14.56
2023-05-11T06:38:56.358Z,14.52
2023-05-11T06:41:29.280Z,14.52
2023-05-11T06:44:00.999Z,14.58
2023-05-11T06:46:41.483Z,14.49
2023-05-11T06:49:11.909Z,14.43
2023-05-11T06:51:44.940Z,14.50
2023-05-11T06:54:15.339Z,14.62
2023-05-11T06:56:45.377Z,14.67
2023-05-11T06:59:16.711Z,14.91
2023-05-11T07:01:48.742Z,15.00
2023-05-11T07:04:21.248Z,14.95
2023-05-11T07:06:54.096Z,15.07
2023-05-11T07:09:23.974Z,15.10
2023-05-11T07:11:54.093Z,15.21
2023-05-11T07:14:24.191Z,15.45
2023-05-11T07:16:54.228Z,15.49
2023-05-11T07:19:24.414Z,15.81
2023-05-11T07:22:00.276Z,15.96
2023-05-11T07:24:30.885Z,16.10
2023-05-11T07:27:02.551Z,15.96
2023-05-11T07:29:32.514Z,15.92
2023-05-11T07:32:02.633Z,15.99
2023-05-11T07:34:33.836Z,15.87
2023-05-11T07:37:06.587Z,15.88
2023-05-11T07:39:36.586Z,15.63
2023-05-11T07:42:07.439Z,15.63
2023-05-11T07:44:37.781Z,15.75
2023-05-11T07:47:07.884Z,15.74
2023-05-11T07:49:43.391Z,15.44
2023-05-11T07:52:16.948Z,15.48
2023-05-11T07:54:48.061Z,15.40
2023-05-11T07:57:18.338Z,15.32
2023-05-11T07:59:48.899Z,15.25
2023-05-11T08:02:21.599Z,15.20
2023-05-11T08:04:51.674Z,15.23
2023-05-11T08:07:24.590Z,15.10
2023-05-11T08:09:55.712Z,15.09
2023-05-11T08:12:26.658Z,15.09
2023-05-11T08:14:57.208Z,15.16
2023-05-11T08:17:27.232Z,15.12
2023-05-11T08:19:57.448Z,15.07
2023-05-11T08:22:30.387Z,15.21
2023-05-11T08:25:00.623Z,15.26
2023-05-11T08:27:31.558Z,15.27
2023-05-11T08:30:01.646Z,15.26
2023-05-11T08:32:34.683Z,15.40
2023-05-11T08:35:10.652Z,15.36
2023-05-11T08:37:43.735Z,15.26
2023-05-11T08:40:15.981Z,15.24
2023-05-11T08:42:49.592Z,15.20
2023-05-11T08:45:21.175Z,15.11
2023-05-11T08:47:52.841Z,15.31
2023-05-11T08:50:23.002Z,15.42
2023-05-11T08:52:55.896Z,15.55
2023-05-11T08:55:28.984Z,15.50
2023-05-11T08:58:01.812Z,15.59
2023-05-11T09:00:32.997Z,15.47
2023-05-11T09:03:04.087Z,15.53
2023-05-11T09:05:35.709Z,15.48
2023-05-11T09:08:10.654Z,15.63
2023-05-11T09:10:40.761Z,15.53
2023-05-11T09:13:10.717Z,15.70
2023-05-11T09:15:40.711Z,15.60
2023-05-11T09:18:11.694Z,15.72
2023-05-11T09:20:46.915Z,15.89
2023-05-11T09:23:22.623Z,15.97
2023-05-11T09:25:52.626Z,15.95
2023-05-11T09:28:25.912Z,15.93
2023-05-11T09:30:59.614Z,16.05
2023-05-11T09:33:31.539Z,16.29
2023-05-11T09:36:03.148Z,16.42
2023-05-11T09:38:38.628Z,16.61
2023-05-11T09:41:09.305Z,16.66
2023-05-11T09:43:39.858Z,16.77
2023-05-11T09:46:11.855Z,17.07
2023-05-11T09:48:43.545Z,17.31
2023-05-11T09:51:16.283Z,17.66
2023-05-11T09:53:52.106Z,17.74
2023-05-11T09:56:24.928Z,17.92
2023-05-11T09:58:58.777Z,17.58
2023-05-11T10:01:34.166Z,17.78
2023-05-11T10:04:23.160Z,17.93
2023-05-11T10:06:56.129Z,17.81
2023-05-11T10:09:30.164Z,17.46
2023-05-11T10:12:00.898Z,17.65
2023-05-11T10:14:35.703Z,17.82
2023-05-11T10:17:08.302Z,17.53
2023-05-11T10:19:40.048Z,17.55
2023-05-11T10:22:12.036Z,17.35
2023-05-11T10:24:46.519Z,17.83
2023-05-11T10:27:25.040Z,18.06
2023-05-11T10:30:09.682Z,17.92
2023-05-11T10:32:48.651Z,18.14
2023-05-11T10:35:25.619Z,17.85
2023-05-11T10:37:58.663Z,17.58
2023-05-11T10:40:35.428Z,17.82
2023-05-11T10:43:54.503Z,17.88
2023-05-11T10:46:42.826Z,17.72
2023-05-11T10:49:31.621Z,18.11
2023-05-11T10:52:28.283Z,18.16
2023-05-11T10:55:17.411Z,18.02
2023-05-11T10:58:10.676Z,17.91
2023-05-11T11:01:31.730Z,17.86
2023-05-11T11:04:05.606Z,17.68
2023-05-11T11:06:43.668Z,17.79
2023-05-11T11:09:19.198Z,17.53
2023-05-11T11:12:18.787Z,17.31
2023-05-11T11:15:05.388Z,17.43
2023-05-11T11:17:38.495Z,17.38
2023-05-11T11:20:12.507Z,17.36
2023-05-11T11:23:03.719Z,17.31
2023-05-11T11:25:59.526Z,17.49
2023-05-11T11:28:29.889Z,16.98
2023-05-11T11:31:40.191Z,17.09
2023-05-11T11:34:47.116Z,16.89
2023-05-11T11:37:20.999Z,16.92
2023-05-11T11:40:09.413Z,16.78
2023-05-11T11:42:46.025Z,17.04
2023-05-11T11:45:35.492Z,17.02
2023-05-11T11:48:35.016Z,17.09
2023-05-11T11:51:15.779Z,17.15
2023-05-11T11:54:17.144Z,17.13
2023-05-11T11:56:49.140Z,16.97
2023-05-11T11:59:23.289Z,16.63
2023-05-11T12:01:56.713Z,16.60
2023-05-11T12:05:00.057Z,16.59
2023-05-11T12:07:39.932Z,16.45
2023-05-11T12:10:14.049Z,16.31
2023-05-11T12:12:49.802Z,16.17
2023-05-11T12:15:34.702Z,16.19
2023-05-11T12:18:11.847Z,16.12
2023-05-11T12:20:55.027Z,16.28
2023-05-11T12:23:42.589Z,16.34
2023-05-11T12:26:17.750Z,16.26
2023-05-11T12:28:51.834Z,16.41
2023-05-11T12:31:23.528Z,16.48
2023-05-11T12:33:57.152Z,16.63
2023-05-11T12:36:30.900Z,16.67
2023-05-11T12:39:13.123Z,17.06
2023-05-11T12:41:47.582Z,16.93
2023-05-11T12:44:26.292Z,17.23
2023-05-11T12:47:13.382Z,17.18
2023-05-11T12:49:53.316Z,17.12
2023-05-11T12:52:36.019Z,17.02
2023-05-11T12:55:19.209Z,17.35
2023-05-11T12:58:15.816Z,17.68
2023-05-11T13:01:00.196Z,17.94
2023-05-11T13:03:34.595Z,18.63
2023-05-11T13:06:14.254Z,18.73
2023-05-11T13:09:01.596Z,19.05
2023-05-11T13:11:33.669Z,19.38
2023-05-11T13:14:19.107Z,19.97
2023-05-11T13:16:59.244Z,20.26
2023-05-11T13:19:35.849Z,20.45
2023-05-11T13:22:09.902Z,19.87
2023-05-11T13:24:53.685Z,19.98
2023-05-11T13:27:26.092Z,19.48
2023-05-11T13:29:57.021Z,19.35
2023-05-11T13:32:28.265Z,19.22
2023-05-11T13:35:02.021Z,19.95
2023-05-11T13:37:38.757Z,19.90
2023-05-11T13:40:27.318Z,19.59
2023-05-11T13:43:13.014Z,19.62
2023-05-11T13:45:43.756Z,19.74
2023-05-11T13:48:17.445Z,19.94
2023-05-11T13:50:57.795Z,20.73
2023-05-11T13:53:31.904Z,20.58
2023-05-11T13:56:11.701Z,20.52
2023-05-11T13:58:45.388Z,21.08
2023-05-11T14:01:19.055Z,21.15
2023-05-11T14:04:09.767Z,21.25
2023-05-11T14:06:58.206Z,21.08
2023-05-11T14:09:49.783Z,21.15
2023-05-11T14:12:26.678Z,20.95
2023-05-11T14:15:01.119Z,20.08
2023-05-11T14:17:51.043Z,20.33
2023-05-11T14:20:25.366Z,20.47
2023-05-11T14:22:59.331Z,20.59
2023-05-11T14:25:34.149Z,20.39
2023-05-11T14:28:13.005Z,20.31
2023-05-11T14:30:52.079Z,20.42
2023-05-11T14:33:25.727Z,21.26
2023-05-11T14:36:07.396Z,21.41
2023-05-11T14:38:38.673Z,21.75
2023-05-11T14:41:10.728Z,21.51
2023-05-11T14:43:46.048Z,21.96
2023-05-11T14:46:16.519Z,22.05
2023-05-11T14:48:47.135Z,22.57
2023-05-11T14:51:20.656Z,22.15
2023-05-11T14:53:53.913Z,22.86
2023-05-11T14:56:25.407Z,22.75
2023-05-11T14:59:00.198Z,22.15
2023-05-11T15:01:47.529Z,22.42
2023-05-11T15:04:21.549Z,22.24
2023-05-11T15:06:56.316Z,23.29
2023-05-11T15:09:30.155Z,22.31
2023-05-11T15:12:03.581Z,22.61
2023-05-11T15:14:40.383Z,23.85
2023-05-11T15:17:10.834Z,23.80
2023-05-11T15:19:41.659Z,23.78
2023-05-11T15:22:17.857Z,22.49
2023-05-11T15:24:49.942Z,22.06
2023-05-11T15:27:28.293Z,22.65
2023-05-11T15:30:06.638Z,22.47
2023-05-11T15:32:39.207Z,21.88
2023-05-11T15:35:11.066Z,22.29
2023-05-11T15:37:49.470Z,21.90
2023-05-11T15:40:35.615Z,22.33
2023-05-11T15:43:08.284Z,22.75
2023-05-11T15:45:43.986Z,22.26
2023-05-11T15:48:15.533Z,21.18
2023-05-11T15:50:52.512Z,21.05
2023-05-11T15:53:27.153Z,20.92
2023-05-11T15:55:57.199Z,20.55
2023-05-11T15:58:43.240Z,19.62
2023-05-11T16:01:17.734Z,18.96
2023-05-11T16:03:53.522Z,18.45
2023-05-11T16:06:31.405Z,18.25
2023-05-11T16:09:28.334Z,18.24
2023-05-11T16:12:08.897Z,18.07
2023-05-11T16:14:45.837Z,17.67
2023-05-11T16:17:25.721Z,17.47
2023-05-11T16:20:01.231Z,17.55
2023-05-11T16:22:40.994Z,17.53
2023-05-11T16:25:24.283Z,17.53
2023-05-11T16:28:09.466Z,17.64
2023-05-11T16:30:46.374Z,17.26
2023-05-11T16:33:26.375Z,17.52
2023-05-11T16:36:05.262Z,17.51
2023-05-11T16:38:43.911Z,17.57
2023-05-11T16:41:16.573Z,17.31
2023-05-11T16:43:51.549Z,17.32
2023-05-11T16:46:24.031Z,17.26
2023-05-11T16:48:58.521Z,17.21
2023-05-11T16:51:29.593Z,17.17
2023-05-11T16:53:59.489Z,17.26
2023-05-11T16:56:29.837Z,17.14
2023-05-11T16:58:59.712Z,17.30
2023-05-11T17:01:29.960Z,17.40
2023-05-11T17:04:02.600Z,17.25
2023-05-11T17:06:34.685Z,17.32
2023-05-11T17:09:04.677Z,17.37
2023-05-11T17:11:34.676Z,17.47
2023-05-11T17:14:04.665Z,17.32
2023-05-11T17:16:35.974Z,17.30
2023-05-11T17:19:09.758Z,17.26
2023-05-11T17:21:40.153Z,17.46
2023-05-11T17:24:11.800Z,17.40
2023-05-11T17:26:47.743Z,17.50
2023-05-11T17:29:18.409Z,17.56
2023-05-11T17:31:52.322Z,17.60
2023-05-11T17:34:28.932Z,17.68
2023-05-11T17:36:59.408Z,17.69
2023-05-11T17:39:29.508Z,17.71
2023-05-11T17:41:59.957Z,17.69
2023-05-11T17:44:31.221Z,17.68
2023-05-11T17:47:01.163Z,17.64
2023-05-11T17:49:34.381Z,17.61
2023-05-11T17:52:04.484Z,17.62
2023-05-11T17:54:34.521Z,17.56
2023-05-11T17:57:05.028Z,17.56
2023-05-11T17:59:41.759Z,17.53
2023-05-11T18:02:12.704Z,17.55
2023-05-11T18:04:46.322Z,17.54
2023-05-11T18:07:18.977Z,17.57
2023-05-11T18:09:49.188Z,17.46
2023-05-11T18:12:19.114Z,17.49
2023-05-11T18:14:52.243Z,17.44
2023-05-11T18:17:25.242Z,17.43
2023-05-11T18:19:57.869Z,17.38
2023-05-11T18:22:30.294Z,17.35
2023-05-11T18:25:00.454Z,17.30
2023-05-11T18:27:31.189Z,17.22
2023-05-11T18:30:02.059Z,17.19
2023-05-11T18:32:32.275Z,17.37
2023-05-11T18:35:04.936Z,17.36
2023-05-11T18:37:36.937Z,17.37
2023-05-11T18:40:07.958Z,17.24
2023-05-11T18:42:39.295Z,17.31
2023-05-11T18:45:12.645Z,17.40
2023-05-11T18:47:44.745Z,17.35
2023-05-11T18:50:17.704Z,17.40
2023-05-11T18:52:47.993Z,17.29
2023-05-11T18:55:19.430Z,17.31
2023-05-11T18:57:50.764Z,17.31
2023-05-11T19:00:21.066Z,17.26
2023-05-11T19:02:52.237Z,17.20
2023-05-11T19:05:25.462Z,17.22
2023-05-11T19:07:57.642Z,17.13
2023-05-11T19:10:28.101Z,17.00
2023-05-11T19:13:01.227Z,17.02
2023-05-11T19:15:32.579Z,16.95
2023-05-11T19:18:03.103Z,16.94
2023-05-11T19:20:39.163Z,16.88
2023-05-11T19:23:09.554Z,16.85
2023-05-11T19:25:39.353Z,16.79
2023-05-11T19:28:09.588Z,16.78
2023-05-11T19:30:39.975Z,16.65
2023-05-11T19:33:09.867Z,16.67
2023-05-11T19:35:42.566Z,16.61
2023-05-11T19:38:12.912Z,16.59
2023-05-11T19:40:46.360Z,16.52
2023-05-11T19:43:17.001Z,16.45
2023-05-11T19:45:47.347Z,16.34
2023-05-11T19:48:18.184Z,16.37
2023-05-11T19:50:51.002Z,16.25
2023-05-11T19:53:21.828Z,16.16
2023-05-11T19:55:51.793Z,16.18
2023-05-11T19:58:22.514Z,16.12
2023-05-11T20:00:55.371Z,16.11
2023-05-11T20:03:28.015Z,16.05
2023-05-11T20:06:02.038Z,15.99
2023-05-11T20:08:32.248Z,15.89
2023-05-11T20:11:02.929Z,15.86
2023-05-11T20:13:34.666Z,15.85
2023-05-11T20:16:04.804Z,15.86
2023-05-11T20:18:34.619Z,15.80
2023-05-11T20:21:07.331Z,15.64
2023-05-11T20:23:37.825Z,15.66
2023-05-11T20:26:07.676Z,15.60
2023-05-11T20:28:39.865Z,15.58
2023-05-11T20:31:10.406Z,15.54
2023-05-11T20:36:16.592Z,15.45
2023-05-11T20:38:47.130Z,15.41
2023-05-11T20:41:17.803Z,15.43
2023-05-11T20:43:47.772Z,15.35
2023-05-11T20:46:18.699Z,15.23
2023-05-11T20:48:51.789Z,15.16
2023-05-11T20:51:25.435Z,15.22
2023-05-11T20:53:56.024Z,15.19
2023-05-11T20:56:26.583Z,15.07
2023-05-11T20:58:57.342Z,15.14
2023-05-11T21:01:27.832Z,15.08
2023-05-11T21:04:00.657Z,14.95
2023-05-11T21:06:34.707Z,14.98
2023-05-11T21:09:07.269Z,14.91
2023-05-11T21:11:37.820Z,14.91
2023-05-11T21:14:08.174Z,14.83
2023-05-11T21:16:38.232Z,14.80
2023-05-11T21:19:08.874Z,14.78
2023-05-11T21:21:41.812Z,14.78
2023-05-11T21:24:14.265Z,14.71
2023-05-11T21:26:47.919Z,14.67
2023-05-11T21:29:19.742Z,14.64
2023-05-11T21:31:52.246Z,14.63
2023-05-11T21:34:22.618Z,14.63
2023-05-11T21:36:55.790Z,14.64
2023-05-11T21:39:27.134Z,14.64
2023-05-11T21:42:00.288Z,14.66
2023-05-11T21:44:33.423Z,14.56
2023-05-11T21:47:06.835Z,14.63
2023-05-11T21:49:37.330Z,14.55
2023-05-11T21:52:13.650Z,14.59
2023-05-11T21:54:46.196Z,14.58
2023-05-11T21:57:16.706Z,14.50
2023-05-11T21:59:49.448Z,14.54
2023-05-11T22:02:21.952Z,14.50
2023-05-11T22:04:52.106Z,14.47
2023-05-11T22:07:26.033Z,14.51
2023-05-11T22:09:56.246Z,14.55
2023-05-11T22:12:26.578Z,14.62
2023-05-11T22:14:57.330Z,14.56
2023-05-11T22:17:28.311Z,14.55
2023-05-11T22:19:58.760Z,14.57
2023-05-11T22:22:32.499Z,14.58
2023-05-11T22:25:03.047Z,14.57
2023-05-11T22:27:34.285Z,14.64
2023-05-11T22:30:06.583Z,14.58
2023-05-11T22:32:39.202Z,14.63
2023-05-11T22:35:11.219Z,14.72
2023-05-11T22:37:46.278Z,14.73
2023-05-11T22:40:16.761Z,14.70
2023-05-11T22:42:59.543Z,14.69
2023-05-11T22:45:33.190Z,14.72
2023-05-11T22:48:11.991Z,14.79
2023-05-11T22:50:48.172Z,14.78
2023-05-11T22:53:22.426Z,14.82
2023-05-11T22:55:53.118Z,14.76
2023-05-11T22:58:23.647Z,14.84
2023-05-11T23:00:57.890Z,14.90
2023-05-11T23:03:28.955Z,14.83
2023-05-11T23:06:00.230Z,14.78
2023-05-11T23:08:33.036Z,14.81
2023-05-11T23:11:04.600Z,14.84
2023-05-11T23:13:34.672Z,14.88
2023-05-11T23:16:06.360Z,14.81
2023-05-11T23:18:38.134Z,14.88
2023-05-11T23:21:08.568Z,14.92
2023-05-11T23:23:42.883Z,14.88
2023-05-11T23:26:14.013Z,14.94
2023-05-11T23:28:44.691Z,14.91
2023-05-11T23:31:14.746Z,14.93
2023-05-11T23:33:44.730Z,14.96
2023-05-11T23:36:14.794Z,14.96
2023-05-11T23:38:48.714Z,14.98
2023-05-11T23:41:18.653Z,14.92
2023-05-11T23:43:48.740Z,14.94
2023-05-11T23:46:18.701Z,14.90
2023-05-11T23:48:48.990Z,14.87
2023-05-11T23:51:19.330Z,14.83
2023-05-11T23:53:51.915Z,14.83
2023-05-11T23:56:21.910Z,14.72
2023-05-11T23:58:53.178Z,14.70
